Terminal Aerodrome Forecast
Issued by NWS Charleston, WV

Current Version | Previous Version | Graphics & Text | Print | Product List | Glossary On
Versions: 1 2 3 4 5 6 7 8 9 10 11 12 13 14 15 16 17 18 19 20
969
FTUS41 KRLX 080901 AAB
TAFBKW
TAF AMD
KBKW 080901Z 0809/0906 22005KT P6SM BKN120
     FM081300 18005KT 5SM -SN OVC030
     FM081500 20006KT 2SM -RASN OVC007
     FM081800 22007KT 2SM -RASN OVC004
     FM082100 26007KT 5SM -RASN OVC015=

USA.gov is the U.S. government's official web portal to all federal, state and local government web resources and services.